createdAt,value
2022-10-06T00:00:39.162Z,8.15
2022-10-06T00:03:05.847Z,8.23
2022-10-06T00:05:32.867Z,8.20
2022-10-06T00:08:00.761Z,8.21
2022-10-06T00:10:30.277Z,8.22
2022-10-06T00:12:56.938Z,8.23
2022-10-06T00:15:29.796Z,8.17
2022-10-06T00:17:59.469Z,8.17
2022-10-06T00:20:27.181Z,8.15
2022-10-06T00:22:54.129Z,8.16
2022-10-06T00:25:23.560Z,8.16
2022-10-06T00:27:52.534Z,8.18
2022-10-06T00:30:22.710Z,8.10
2022-10-06T00:32:58.820Z,8.22
2022-10-06T00:35:26.063Z,8.26
2022-10-06T00:37:53.002Z,8.29
2022-10-06T00:40:21.337Z,8.31
2022-10-06T00:42:56.208Z,8.30
2022-10-06T00:45:44.043Z,8.28
2022-10-06T00:48:18.681Z,8.18
2022-10-06T00:50:46.588Z,7.98
2022-10-06T00:53:14.236Z,8.10
2022-10-06T00:55:40.988Z,8.07
2022-10-06T00:58:08.216Z,8.00
2022-10-06T01:00:34.792Z,7.94
2022-10-06T01:03:10.695Z,7.95
2022-10-06T01:05:44.082Z,7.93
2022-10-06T01:08:10.935Z,7.94
2022-10-06T01:10:45.659Z,7.94
2022-10-06T01:13:13.414Z,7.93
2022-10-06T01:15:50.631Z,7.87
2022-10-06T01:18:20.379Z,7.87
2022-10-06T01:20:55.885Z,7.77
2022-10-06T01:23:23.140Z,7.79
2022-10-06T01:25:50.434Z,7.85
2022-10-06T01:28:17.844Z,7.87
2022-10-06T01:30:53.690Z,7.91
2022-10-06T01:33:21.794Z,7.92
2022-10-06T01:35:51.914Z,7.94
2022-10-06T01:38:20.131Z,7.98
2022-10-06T01:40:47.787Z,7.99
2022-10-06T01:43:14.428Z,8.00
2022-10-06T01:45:41.098Z,7.95
2022-10-06T01:48:08.516Z,7.99
2022-10-06T01:50:53.781Z,8.04
2022-10-06T01:53:24.112Z,8.00
2022-10-06T01:55:50.658Z,7.84
2022-10-06T01:58:17.315Z,7.90
2022-10-06T02:00:44.752Z,7.82
2022-10-06T02:03:11.786Z,7.76
2022-10-06T02:05:38.339Z,7.73
2022-10-06T02:08:04.971Z,7.67
2022-10-06T02:10:31.579Z,7.62
2022-10-06T02:12:58.358Z,7.76
2022-10-06T02:15:26.963Z,7.78
2022-10-06T02:17:54.603Z,7.79
2022-10-06T02:20:21.602Z,7.65
2022-10-06T02:22:48.994Z,7.85
2022-10-06T02:25:17.223Z,7.82
2022-10-06T02:27:44.266Z,7.88
2022-10-06T02:30:12.020Z,7.86
2022-10-06T02:32:42.574Z,7.66
2022-10-06T02:35:11.243Z,7.72
2022-10-06T02:37:37.855Z,7.80
2022-10-06T02:40:04.951Z,7.77
2022-10-06T02:42:31.719Z,7.79
2022-10-06T02:44:59.077Z,7.75
2022-10-06T02:47:25.770Z,7.71
2022-10-06T02:49:52.359Z,7.64
2022-10-06T02:52:18.984Z,7.56
2022-10-06T02:54:46.047Z,7.46
2022-10-06T02:57:15.434Z,7.41
2022-10-06T02:59:43.198Z,7.37
2022-10-06T03:02:09.926Z,7.30
2022-10-06T03:04:36.687Z,7.29
2022-10-06T03:07:03.771Z,7.23
2022-10-06T03:09:30.398Z,7.26
2022-10-06T03:11:56.970Z,7.24
2022-10-06T03:14:23.652Z,7.23
2022-10-06T03:16:54.870Z,6.90
2022-10-06T03:19:21.624Z,7.21
2022-10-06T03:21:50.103Z,7.19
2022-10-06T03:24:17.208Z,7.15
2022-10-06T03:26:46.431Z,7.12
2022-10-06T03:29:13.170Z,7.10
2022-10-06T03:31:40.553Z,7.11
2022-10-06T03:34:07.408Z,7.19
2022-10-06T03:36:35.229Z,7.29
2022-10-06T03:39:03.960Z,7.29
2022-10-06T03:41:32.967Z,7.38
2022-10-06T03:44:01.712Z,7.38
2022-10-06T03:46:30.839Z,7.18
2022-10-06T03:48:57.854Z,7.33
2022-10-06T03:51:41.027Z,7.46
2022-10-06T03:54:11.039Z,7.44
2022-10-06T03:56:40.525Z,7.46
2022-10-06T03:59:11.055Z,7.45
2022-10-06T04:01:43.023Z,7.44
2022-10-06T04:04:10.212Z,7.44
2022-10-06T04:06:39.786Z,7.45
2022-10-06T04:09:14.007Z,7.38
2022-10-06T04:11:43.040Z,7.47
2022-10-06T04:14:11.988Z,7.46
2022-10-06T04:16:42.070Z,7.52
2022-10-06T04:19:11.159Z,7.54
2022-10-06T04:21:39.797Z,7.55
2022-10-06T04:24:08.153Z,7.55
2022-10-06T04:26:41.216Z,7.65
2022-10-06T04:29:07.977Z,7.78
2022-10-06T04:31:37.270Z,7.87
2022-10-06T04:34:04.911Z,7.72
2022-10-06T04:36:34.807Z,7.87
2022-10-06T04:39:04.146Z,7.88
2022-10-06T04:41:34.235Z,7.72
2022-10-06T04:44:01.116Z,7.85
2022-10-06T04:46:45.125Z,7.73
2022-10-06T04:49:18.871Z,7.70
2022-10-06T04:51:46.126Z,7.65
2022-10-06T04:54:12.711Z,7.81
2022-10-06T04:56:39.318Z,7.82
2022-10-06T04:59:05.903Z,7.92
2022-10-06T05:01:35.629Z,7.87
2022-10-06T05:04:04.286Z,7.90
2022-10-06T05:06:36.731Z,7.92
2022-10-06T05:09:07.287Z,7.91
2022-10-06T05:11:35.657Z,7.96
2022-10-06T05:14:02.375Z,7.96
2022-10-06T05:16:31.052Z,8.10
2022-10-06T05:18:58.902Z,8.09
2022-10-06T05:21:30.389Z,8.08
2022-10-06T05:23:57.359Z,8.06
2022-10-06T05:26:27.221Z,8.24
2022-10-06T05:28:53.820Z,8.15
2022-10-06T05:31:27.356Z,8.25
2022-10-06T05:33:55.296Z,8.22
2022-10-06T05:36:24.331Z,8.15
2022-10-06T05:38:50.937Z,8.16
2022-10-06T05:41:21.129Z,8.24
2022-10-06T05:43:48.438Z,8.31
2022-10-06T05:46:28.409Z,8.28
2022-10-06T05:49:08.112Z,8.32
2022-10-06T05:51:36.563Z,8.33
2022-10-06T05:54:03.588Z,8.47
